Fort Richardson, Alaska
Current Conditions -  °F | °C
As of 7:58 PM on Friday 21 Nov 2014 (Local Time) from PAED Reporting Station
Overcast Overcast  
Wind Chill: 28°   Ceiling: 16000
Heat Index: 28°   Visibility: 9mi
Dew Point: 24°   Wind: 0mph
Humidity: 85%   Direction: NA
Pressure: 28.9"   Gusts: NA
Location:  61.25°N, 149.69°W
Report Text: PAED 220458Z AUTO 00000KT 9SM OVC160 M02/M05 A2890 RMK AO2 SLP784 T10241046 $
Loading
Personal Weather Stations






























Interactive Weather Map New forecast layout! Learn more

10-Day Weather Forecast

Advertisements
Track Severe Weather on mobile